Aérodrome :
LOGIN :

S'inscrire | Disclaimer

   EN    FR    IT 

 










Légende :    VFR   VFR Marginal   IFR   IFR Intensif   IFR Très Intensif
Visi : 
Plafond : 
>= 8 km
>= 3000ft
5 à 8 km
1000 à 3000 ft
1500m à 5 km
500 à 1000 ft
800 à 1500m
200 à 500 ft
< 800m
< 200 ft
Symboles :   Orages  Brouillard  Fortes neiges  Fortes précipitations  Vent > 20 kt
SIGMETs :   Divers  Orages  Givrage  Turbulence  Onde Orograph.  Cendres Volcan.







- Altitude de l'aérodrome : 796 ft
- Code IATA : SYT
- Voir les cartes d'approche


LFLN - Saint-Yan

DERNIER METAR :
  • 220130Z AUTO 14001KT 5000 R33/1400U BR NSC M00/M01 Q1032

METARs EXPIRÉS :
  • 220100Z AUTO 00000KT 7000 NSC M00/M01 Q1032
  • 220030Z AUTO 16001KT 5000 BR NSC 00/M00 Q1032
  • 220000Z AUTO 15002KT 5000 BR NSC 00/M01 Q1032
  • 212330Z AUTO 14001KT 6000 NSC 01/01 Q1032
  • 212300Z AUTO 00000KT 6000 NSC 01/00 Q1032

TAF TAF LFLN
Valide du 21 à 18h jusqu'au 22 à 03h UTC


211700Z 2118/2203 VRB02KT CAVOK
BECMG 2121/2124 3000 BR
BECMG 2200/2203 0800 BCFG BKN002
Pas de NOTAMs connus pour ce terrain.



MET'MAP, la Météo Aéronautique d'un coup d'oeil ! - Copyright ORBIFLY Décembre 2007 - Disclaimer

ORBIFLY MET'MAP TEAM :

Programmation & Développement : Alexandra Zaïnal
Conception & Développement : Baudouin d'Aumeries
Co-Programmation & Développement : Marc-Olivier Méhu
Soutien technique & logistique : Manuel Goepfert

Contact : metmap@orbifly.com




SOURCES & CREDITS :

   NOAA